createdAt,value
2018-03-11T00:02:10.989Z,7.80
2018-03-11T00:04:38.388Z,7.80
2018-03-11T00:07:05.824Z,7.80
2018-03-11T00:09:33.264Z,7.80
2018-03-11T00:12:00.737Z,7.70
2018-03-11T00:14:28.147Z,7.60
2018-03-11T00:16:55.578Z,7.60
2018-03-11T00:19:23.776Z,7.60
2018-03-11T00:21:51.220Z,7.50
2018-03-11T00:24:18.662Z,7.50
2018-03-11T00:26:46.082Z,7.50
2018-03-11T00:29:13.532Z,7.50
2018-03-11T00:31:40.976Z,7.50
2018-03-11T00:34:08.389Z,7.60
2018-03-11T00:36:36.603Z,7.60
2018-03-11T00:39:04.039Z,7.50
2018-03-11T00:41:31.484Z,7.60
2018-03-11T00:43:58.928Z,7.50
2018-03-11T00:46:26.379Z,7.50
2018-03-11T00:48:53.796Z,7.50
2018-03-11T00:51:21.227Z,7.40
2018-03-11T00:53:48.670Z,7.30
2018-03-11T00:56:16.111Z,7.20
2018-03-11T00:58:43.537Z,7.20
2018-03-11T01:01:10.970Z,7.20
2018-03-11T01:03:39.172Z,7.30
2018-03-11T01:06:06.624Z,7.30
2018-03-11T01:08:34.051Z,7.40
2018-03-11T01:11:01.479Z,7.40
2018-03-11T01:13:28.916Z,7.40
2018-03-11T01:15:56.355Z,7.40
2018-03-11T01:18:23.777Z,7.40
2018-03-11T01:20:51.980Z,7.30
2018-03-11T01:23:19.412Z,7.30
2018-03-11T01:25:46.863Z,7.30
2018-03-11T01:28:14.296Z,7.30
2018-03-11T01:30:41.738Z,7.30
2018-03-11T01:33:09.164Z,7.20
2018-03-11T01:35:36.601Z,7.20
2018-03-11T01:38:04.773Z,7.20
2018-03-11T01:40:32.243Z,7.10
2018-03-11T01:42:59.675Z,7.20
2018-03-11T01:45:27.107Z,7.30
2018-03-11T01:47:54.549Z,7.20
2018-03-11T01:50:21.982Z,7.20
2018-03-11T01:53:01.228Z,7.30
2018-03-11T01:55:28.664Z,7.30
2018-03-11T01:57:56.112Z,7.30
2018-03-11T02:00:23.524Z,7.30
2018-03-11T02:02:50.977Z,7.30
2018-03-11T02:05:18.428Z,7.30
2018-03-11T02:07:45.863Z,7.30
2018-03-11T02:10:13.296Z,7.30
2018-03-11T02:12:40.734Z,7.30
2018-03-11T02:15:08.176Z,7.30
2018-03-11T02:17:35.608Z,7.20
2018-03-11T02:20:03.072Z,7.20
2018-03-11T02:22:30.519Z,7.00
2018-03-11T02:24:57.944Z,6.90
2018-03-11T02:27:25.369Z,6.80
2018-03-11T02:29:52.806Z,6.70
2018-03-11T02:32:20.989Z,6.60
2018-03-11T02:34:48.413Z,6.50
2018-03-11T02:37:15.853Z,6.50
2018-03-11T02:39:44.019Z,6.40
2018-03-11T02:42:11.462Z,6.40
2018-03-11T02:44:38.882Z,6.40
2018-03-11T02:47:06.375Z,6.40
2018-03-11T02:49:34.503Z,6.50
2018-03-11T02:52:01.984Z,6.50
2018-03-11T02:54:29.415Z,6.50
2018-03-11T02:56:56.848Z,6.70
2018-03-11T02:59:24.272Z,6.80
2018-03-11T03:01:51.710Z,6.80
2018-03-11T03:04:19.191Z,6.90
2018-03-11T03:06:46.624Z,6.90
2018-03-11T03:09:14.044Z,6.90
2018-03-11T03:11:41.479Z,7.00
2018-03-11T03:14:08.916Z,7.00
2018-03-11T03:16:36.363Z,7.00
2018-03-11T03:19:03.816Z,7.00
2018-03-11T03:21:31.252Z,6.90
2018-03-11T03:23:58.680Z,7.00
2018-03-11T03:26:26.117Z,6.90
2018-03-11T03:28:53.540Z,6.90
2018-03-11T03:31:21.729Z,7.10
2018-03-11T03:33:49.176Z,7.10
2018-03-11T03:36:16.637Z,7.20
2018-03-11T03:38:44.068Z,7.20
2018-03-11T03:41:11.484Z,7.30
2018-03-11T03:43:38.920Z,7.30
2018-03-11T03:46:06.359Z,7.40
2018-03-11T03:48:33.780Z,7.40
2018-03-11T03:51:01.984Z,7.50
2018-03-11T03:53:29.422Z,7.50
2018-03-11T03:55:56.860Z,7.50
2018-03-11T03:58:24.312Z,7.40
2018-03-11T04:00:51.732Z,7.40
2018-03-11T04:03:19.160Z,7.40
2018-03-11T04:05:46.602Z,7.40
2018-03-11T04:08:14.816Z,7.40
2018-03-11T04:10:42.224Z,7.40
2018-03-11T04:13:09.668Z,7.50
2018-03-11T04:15:37.095Z,7.60
2018-03-11T04:18:04.561Z,7.50
2018-03-11T04:20:31.988Z,7.50
2018-03-11T04:22:59.424Z,7.40
2018-03-11T04:25:26.871Z,7.30
2018-03-11T04:27:54.313Z,7.20
2018-03-11T04:30:21.766Z,7.10
2018-03-11T04:32:49.185Z,7.00
2018-03-11T04:35:16.618Z,7.00
2018-03-11T04:37:44.056Z,6.90
2018-03-11T04:40:12.268Z,7.10
2018-03-11T04:42:39.681Z,7.10
2018-03-11T04:45:07.120Z,7.10
2018-03-11T04:47:34.559Z,7.10
2018-03-11T04:50:02.042Z,7.00
2018-03-11T04:52:29.476Z,6.90
2018-03-11T04:54:56.887Z,6.80
2018-03-11T04:57:24.323Z,6.80
2018-03-11T04:59:51.760Z,6.80
2018-03-11T05:02:19.205Z,6.70
2018-03-11T05:04:46.636Z,6.60
2018-03-11T05:07:14.068Z,6.50
2018-03-11T05:09:42.272Z,6.50
2018-03-11T05:12:09.720Z,6.50
2018-03-11T05:14:37.172Z,6.50
2018-03-11T05:17:04.576Z,6.40
2018-03-11T05:19:32.012Z,6.40
2018-03-11T05:21:59.469Z,6.40
2018-03-11T05:24:26.896Z,6.40
2018-03-11T05:26:54.321Z,6.40
2018-03-11T05:29:22.520Z,6.40
2018-03-11T05:31:49.956Z,6.40
2018-03-11T05:34:17.391Z,6.30
2018-03-11T05:36:44.830Z,6.30
2018-03-11T05:39:12.279Z,6.20
2018-03-11T05:41:39.760Z,6.20
2018-03-11T05:44:07.199Z,6.10
2018-03-11T05:46:35.397Z,6.00
2018-03-11T05:49:02.839Z,5.90
2018-03-11T05:51:30.272Z,5.90
2018-03-11T05:53:58.464Z,5.70
2018-03-11T05:56:25.908Z,5.70
2018-03-11T05:58:53.332Z,5.70
2018-03-11T06:01:20.767Z,5.60
2018-03-11T06:03:48.187Z,5.60
2018-03-11T06:06:16.416Z,5.50
2018-03-11T06:08:43.835Z,5.50
2018-03-11T06:11:11.268Z,5.50
2018-03-11T06:13:38.688Z,5.50
2018-03-11T06:16:06.124Z,5.60
2018-03-11T06:18:34.318Z,5.60
2018-03-11T06:21:01.765Z,5.50
2018-03-11T06:23:29.180Z,5.50
2018-03-11T06:25:56.600Z,5.60
2018-03-11T06:28:24.786Z,5.60
2018-03-11T06:30:52.224Z,5.60
2018-03-11T06:33:19.648Z,5.60
2018-03-11T06:35:47.873Z,5.80
2018-03-11T06:38:17.116Z,5.70
2018-03-11T06:40:44.536Z,5.80
2018-03-11T06:43:12.737Z,5.90
2018-03-11T06:45:40.165Z,5.90
2018-03-11T06:48:07.584Z,6.00
2018-03-11T06:50:35.014Z,6.10
2018-03-11T06:53:03.210Z,6.10
2018-03-11T06:55:30.618Z,6.10
2018-03-11T06:57:58.048Z,6.30
2018-03-11T07:00:26.228Z,6.60
2018-03-11T07:02:53.665Z,6.60
2018-03-11T07:05:21.128Z,6.70
2018-03-11T07:07:48.516Z,6.80
2018-03-11T07:10:15.939Z,6.90
2018-03-11T07:12:43.361Z,6.90
2018-03-11T07:15:10.799Z,7.00
2018-03-11T07:17:38.204Z,6.90
2018-03-11T07:20:06.412Z,7.10
2018-03-11T07:22:33.857Z,7.10
2018-03-11T07:25:01.276Z,7.20
2018-03-11T07:27:28.692Z,7.50
2018-03-11T07:29:56.116Z,7.70
2018-03-11T07:32:24.296Z,8.00
2018-03-11T07:34:51.752Z,8.00
2018-03-11T07:37:19.160Z,8.20
2018-03-11T07:39:47.352Z,8.60
2018-03-11T07:42:14.779Z,8.60
2018-03-11T07:44:42.201Z,8.70
2018-03-11T07:47:10.386Z,9.00
2018-03-11T07:49:37.802Z,9.00
2018-03-11T07:52:05.991Z,9.10
2018-03-11T07:54:33.435Z,9.10
2018-03-11T07:57:01.608Z,9.40
2018-03-11T07:59:29.020Z,9.40
2018-03-11T08:01:56.494Z,9.50
2018-03-11T08:04:23.923Z,9.60
2018-03-11T08:06:51.340Z,9.50
2018-03-11T08:09:19.544Z,9.30
2018-03-11T08:11:46.953Z,9.30
2018-03-11T08:14:14.373Z,9.30
2018-03-11T08:16:42.562Z,9.50
2018-03-11T08:19:09.996Z,9.50
2018-03-11T08:21:37.420Z,9.50
2018-03-11T08:24:05.604Z,9.70
2018-03-11T08:26:33.020Z,9.70
2018-03-11T08:29:01.231Z,9.70
2018-03-11T08:31:28.640Z,9.70
2018-03-11T08:33:56.064Z,9.90
2018-03-11T08:36:24.252Z,10.10
2018-03-11T08:38:51.700Z,10.10
2018-03-11T08:41:19.111Z,10.20
2018-03-11T08:43:46.539Z,10.30
2018-03-11T08:46:14.729Z,10.70
2018-03-11T08:48:42.140Z,10.70
2018-03-11T08:51:10.331Z,11.00
2018-03-11T08:53:37.768Z,11.00
2018-03-11T08:56:05.200Z,11.20
2018-03-11T08:58:32.620Z,11.50
2018-03-11T09:01:00.821Z,11.70
2018-03-11T09:03:28.244Z,11.70
2018-03-11T09:05:55.688Z,11.80
2018-03-11T09:08:23.145Z,12.00
2018-03-11T09:10:50.561Z,12.00
2018-03-11T09:13:17.984Z,12.10
2018-03-11T09:15:46.270Z,12.10
2018-03-11T09:18:13.607Z,12.00
2018-03-11T09:20:41.036Z,12.00
2018-03-11T09:23:09.228Z,12.30
2018-03-11T09:25:36.680Z,12.20
2018-03-11T09:28:04.124Z,12.40
2018-03-11T09:30:31.564Z,12.70
2018-03-11T09:32:58.984Z,12.80
2018-03-11T09:35:26.456Z,12.70
2018-03-11T09:37:53.876Z,12.70
2018-03-11T09:40:21.312Z,12.70
2018-03-11T09:42:48.735Z,12.70
2018-03-11T09:45:16.167Z,12.80
2018-03-11T09:47:44.353Z,12.90
2018-03-11T09:50:11.783Z,12.90
2018-03-11T09:52:39.216Z,12.90
2018-03-11T09:55:07.401Z,12.90
2018-03-11T09:57:34.836Z,12.90
2018-03-11T10:00:02.279Z,13.10
2018-03-11T10:02:29.688Z,13.00
2018-03-11T10:04:57.891Z,13.90
2018-03-11T10:07:25.324Z,13.90
2018-03-11T10:09:52.805Z,14.10
2018-03-11T10:12:20.339Z,14.30
2018-03-11T10:14:47.776Z,14.30
2018-03-11T10:17:15.196Z,14.60
2018-03-11T10:19:42.615Z,14.70
2018-03-11T10:22:10.040Z,14.80
2018-03-11T10:24:38.233Z,14.80
2018-03-11T10:27:05.668Z,14.70
2018-03-11T10:29:33.088Z,14.80
2018-03-11T10:32:00.518Z,14.80
2018-03-11T10:34:28.708Z,15.20
2018-03-11T10:36:56.180Z,15.20
2018-03-11T10:39:23.614Z,15.10
2018-03-11T10:41:51.044Z,14.90
2018-03-11T10:44:18.472Z,14.80
2018-03-11T10:46:45.948Z,14.60
2018-03-11T10:49:13.432Z,14.40
2018-03-11T10:51:40.840Z,14.40
2018-03-11T10:54:08.292Z,14.40
2018-03-11T10:56:35.716Z,14.30
2018-03-11T10:59:03.135Z,14.30
2018-03-11T11:01:36.368Z,14.40
2018-03-11T11:04:04.563Z,14.50
2018-03-11T11:06:31.984Z,14.60
2018-03-11T11:09:00.179Z,14.50
2018-03-11T11:11:27.609Z,14.50
2018-03-11T11:13:55.168Z,14.20
2018-03-11T11:16:22.592Z,14.10
2018-03-11T11:18:50.013Z,14.30
2018-03-11T11:21:17.436Z,14.50
2018-03-11T11:23:45.636Z,14.60
2018-03-11T11:26:13.068Z,14.50
2018-03-11T11:28:41.248Z,14.60
2018-03-11T11:31:08.668Z,14.60
2018-03-11T11:33:36.142Z,14.80
2018-03-11T11:36:03.573Z,14.80
2018-03-11T11:38:31.004Z,15.00
2018-03-11T11:40:58.448Z,14.70
2018-03-11T11:43:25.861Z,14.50
2018-03-11T11:45:54.064Z,15.40
2018-03-11T11:48:21.501Z,15.30
2018-03-11T11:50:48.912Z,15.80
2018-03-11T11:53:16.340Z,16.00
2018-03-11T11:55:44.540Z,16.20
2018-03-11T11:58:12.034Z,16.20
2018-03-11T12:00:39.453Z,16.60
2018-03-11T12:03:06.904Z,17.20
2018-03-11T12:05:34.289Z,17.90
2018-03-11T12:08:01.716Z,18.30
2018-03-11T12:10:29.188Z,18.30
2018-03-11T12:12:56.635Z,18.40
2018-03-11T12:15:24.056Z,19.10
2018-03-11T12:17:51.500Z,19.80
2018-03-11T12:20:18.960Z,20.30
2018-03-11T12:22:46.384Z,19.20
2018-03-11T12:25:13.843Z,19.60
2018-03-11T12:27:41.312Z,19.60
2018-03-11T12:30:08.827Z,19.30
2018-03-11T12:32:36.712Z,18.80
2018-03-11T12:35:04.150Z,18.50
2018-03-11T12:37:31.558Z,18.20
2018-03-11T12:39:59.010Z,18.00
2018-03-11T12:42:26.463Z,17.70
2018-03-11T12:44:54.023Z,17.30
2018-03-11T12:47:22.220Z,17.00
2018-03-11T12:49:49.640Z,17.00
2018-03-11T12:52:17.840Z,16.80
2018-03-11T12:54:45.263Z,16.80
2018-03-11T12:57:12.740Z,16.70
2018-03-11T12:59:40.304Z,16.70
2018-03-11T13:02:07.734Z,16.50
2018-03-11T13:04:35.154Z,16.50
2018-03-11T13:07:02.594Z,16.30
2018-03-11T13:09:30.017Z,16.40
2018-03-11T13:11:57.462Z,16.60
2018-03-11T13:14:24.900Z,16.60
2018-03-11T13:16:53.084Z,16.70
2018-03-11T13:19:20.507Z,16.60
2018-03-11T13:21:47.945Z,16.70
2018-03-11T13:24:15.374Z,16.80
2018-03-11T13:26:42.810Z,16.70
2018-03-11T13:29:10.991Z,16.40
2018-03-11T13:31:38.428Z,16.40
2018-03-11T13:34:15.524Z,16.40
2018-03-11T13:36:42.949Z,16.30
2018-03-11T13:39:22.241Z,16.20
2018-03-11T13:41:49.680Z,16.00
2018-03-11T13:44:17.883Z,15.80
2018-03-11T13:46:57.269Z,15.80
2018-03-11T13:49:24.693Z,15.90
2018-03-11T13:52:04.832Z,16.00
2018-03-11T13:54:33.052Z,16.00
2018-03-11T13:57:12.300Z,16.00
2018-03-11T13:59:40.498Z,15.80
2018-03-11T14:02:07.916Z,15.80
2018-03-11T14:04:35.368Z,15.70
2018-03-11T14:07:02.788Z,15.60
2018-03-11T14:09:30.983Z,15.60
2018-03-11T14:11:58.419Z,15.60
2018-03-11T14:14:25.840Z,15.70
2018-03-11T14:16:54.038Z,15.50
2018-03-11T14:19:21.457Z,15.40
2018-03-11T14:21:48.884Z,15.40
2018-03-11T14:24:16.307Z,15.30
2018-03-11T14:26:44.521Z,15.00
2018-03-11T14:29:11.972Z,15.00
2018-03-11T14:31:39.400Z,15.00
2018-03-11T14:34:06.844Z,14.90
2018-03-11T14:36:34.276Z,14.80
2018-03-11T14:39:01.700Z,14.70
2018-03-11T14:41:29.135Z,14.60
2018-03-11T14:43:57.333Z,14.40
2018-03-11T14:46:24.852Z,14.40
2018-03-11T14:48:52.270Z,14.30
2018-03-11T14:51:20.464Z,14.10
2018-03-11T14:53:47.933Z,14.10
2018-03-11T14:56:15.348Z,14.00
2018-03-11T14:58:42.764Z,13.90
2018-03-11T15:01:10.210Z,13.80
2018-03-11T15:03:37.704Z,13.80
2018-03-11T15:06:05.150Z,13.70
2018-03-11T15:08:32.579Z,13.70
2018-03-11T15:11:00.020Z,13.60
2018-03-11T15:13:27.436Z,13.60
2018-03-11T15:15:54.864Z,13.60
2018-03-11T15:18:22.444Z,13.60
2018-03-11T15:20:49.880Z,13.70
2018-03-11T15:23:17.323Z,13.70
2018-03-11T15:25:44.765Z,13.70
2018-03-11T15:28:12.196Z,13.60
2018-03-11T15:30:39.624Z,13.60
2018-03-11T15:33:07.052Z,13.60
2018-03-11T15:35:34.513Z,13.60
2018-03-11T15:38:01.940Z,13.60
2018-03-11T15:40:29.385Z,13.60
2018-03-11T15:42:56.823Z,13.50
2018-03-11T15:45:24.232Z,13.40
2018-03-11T15:47:51.660Z,13.40
2018-03-11T15:50:19.077Z,13.30
2018-03-11T15:52:46.536Z,13.30
2018-03-11T15:55:13.948Z,13.30
2018-03-11T15:57:41.399Z,13.30
2018-03-11T16:00:08.846Z,13.30
2018-03-11T16:02:36.297Z,13.20
2018-03-11T16:05:03.748Z,13.30
2018-03-11T16:07:31.167Z,13.20
2018-03-11T16:09:58.605Z,13.20
2018-03-11T16:12:26.047Z,13.20
2018-03-11T16:14:53.468Z,13.20
2018-03-11T16:17:20.902Z,13.10
2018-03-11T16:19:48.324Z,13.00
2018-03-11T16:22:16.519Z,12.90
2018-03-11T16:24:44.006Z,12.90
2018-03-11T16:27:11.369Z,12.80
2018-03-11T16:29:39.569Z,12.70
2018-03-11T16:32:06.999Z,12.70
2018-03-11T16:34:34.417Z,12.70
2018-03-11T16:37:01.924Z,12.60
2018-03-11T16:39:29.352Z,12.60
2018-03-11T16:41:56.788Z,12.60
2018-03-11T16:44:24.224Z,12.60
2018-03-11T16:46:51.683Z,12.60
2018-03-11T16:49:19.120Z,12.60
2018-03-11T16:51:46.571Z,12.50
2018-03-11T16:54:14.012Z,12.50
2018-03-11T16:56:41.462Z,12.50
2018-03-11T16:59:08.877Z,12.50
2018-03-11T17:01:36.312Z,12.50
2018-03-11T17:04:03.736Z,12.50
2018-03-11T17:06:31.221Z,12.50
2018-03-11T17:08:58.589Z,12.50
2018-03-11T17:11:26.018Z,12.50
2018-03-11T17:13:53.442Z,12.50
2018-03-11T17:16:20.859Z,12.30
2018-03-11T17:18:48.285Z,12.30
2018-03-11T17:21:15.737Z,12.20
2018-03-11T17:23:43.179Z,12.10
2018-03-11T17:26:10.604Z,12.10
2018-03-11T17:28:38.046Z,12.00
2018-03-11T17:31:05.484Z,11.90
2018-03-11T17:33:32.932Z,11.80
2018-03-11T17:36:00.394Z,11.80
2018-03-11T17:38:27.844Z,11.70
2018-03-11T17:40:55.694Z,11.70
2018-03-11T17:43:23.113Z,11.70
2018-03-11T17:45:50.544Z,11.60
2018-03-11T17:48:18.766Z,11.50
2018-03-11T17:50:46.173Z,11.50
2018-03-11T17:53:13.623Z,11.50
2018-03-11T17:55:41.092Z,11.50
2018-03-11T17:58:08.620Z,11.50
2018-03-11T18:00:36.048Z,11.40
2018-03-11T18:03:03.504Z,11.40
2018-03-11T18:05:30.942Z,11.30
2018-03-11T18:07:58.375Z,11.30
2018-03-11T18:10:25.869Z,11.20
2018-03-11T18:12:53.308Z,11.20
2018-03-11T18:15:21.520Z,11.30
2018-03-11T18:17:48.988Z,11.20
2018-03-11T18:20:16.383Z,11.20
2018-03-11T18:22:43.822Z,11.20
2018-03-11T18:25:11.252Z,11.20
2018-03-11T18:27:38.684Z,11.10
2018-03-11T18:30:06.894Z,11.00
2018-03-11T18:32:34.321Z,11.00
2018-03-11T18:35:01.770Z,11.00
2018-03-11T18:37:29.242Z,11.00
2018-03-11T18:39:56.656Z,10.90
2018-03-11T18:42:24.220Z,10.80
2018-03-11T18:44:51.667Z,10.80
2018-03-11T18:47:19.112Z,10.80
2018-03-11T18:49:46.624Z,10.80
2018-03-11T18:52:14.072Z,10.80
2018-03-11T18:54:41.524Z,10.70
2018-03-11T18:57:08.950Z,10.70
2018-03-11T18:59:36.388Z,10.70
2018-03-11T19:02:03.904Z,10.60
2018-03-11T19:04:31.357Z,10.60
2018-03-11T19:06:58.776Z,10.50
2018-03-11T19:09:26.208Z,10.50
2018-03-11T19:11:54.400Z,10.40
2018-03-11T19:14:21.852Z,10.40
2018-03-11T19:16:49.296Z,10.40
2018-03-11T19:19:16.808Z,10.40
2018-03-11T19:21:44.247Z,10.40
2018-03-11T19:24:11.690Z,10.50
2018-03-11T19:26:39.138Z,10.50
2018-03-11T19:29:06.579Z,10.50
2018-03-11T19:31:34.016Z,10.40
2018-03-11T19:34:01.448Z,10.30
2018-03-11T19:36:28.900Z,10.30
2018-03-11T19:38:56.371Z,10.30
2018-03-11T19:41:23.820Z,10.30
2018-03-11T19:43:51.265Z,10.30
2018-03-11T19:46:18.700Z,10.20
2018-03-11T19:48:46.148Z,10.20
2018-03-11T19:51:13.588Z,10.20
2018-03-11T19:53:41.040Z,10.10
2018-03-11T19:56:08.480Z,10.10
2018-03-11T19:58:35.905Z,10.10
2018-03-11T20:01:03.352Z,10.10
2018-03-11T20:03:30.812Z,10.10
2018-03-11T20:05:58.248Z,10.10
2018-03-11T20:08:25.686Z,10.10
2018-03-11T20:10:53.122Z,10.10
2018-03-11T20:13:20.552Z,10.10
2018-03-11T20:15:47.997Z,10.00
2018-03-11T20:18:15.456Z,10.00
2018-03-11T20:20:42.887Z,10.00
2018-03-11T20:23:10.323Z,10.00
2018-03-11T20:25:37.735Z,9.90
2018-03-11T20:28:05.180Z,9.90
2018-03-11T20:30:32.596Z,9.90
2018-03-11T20:33:00.800Z,9.90
2018-03-11T20:35:28.224Z,9.90
2018-03-11T20:37:55.667Z,10.00
2018-03-11T20:40:23.130Z,10.00
2018-03-11T20:42:50.549Z,10.00
2018-03-11T20:45:18.029Z,9.90
2018-03-11T20:47:45.464Z,9.90
2018-03-11T20:50:12.920Z,10.00
2018-03-11T20:52:40.352Z,10.00
2018-03-11T20:55:07.788Z,10.00
2018-03-11T20:57:35.224Z,9.90
2018-03-11T21:00:02.632Z,9.90
2018-03-11T21:02:30.064Z,9.90
2018-03-11T21:04:57.505Z,9.90
2018-03-11T21:07:24.952Z,9.80
2018-03-11T21:09:52.384Z,9.90
2018-03-11T21:12:20.582Z,9.90
2018-03-11T21:14:48.005Z,9.80
2018-03-11T21:17:15.452Z,9.90
2018-03-11T21:19:42.884Z,9.90
2018-03-11T21:22:10.321Z,9.90
2018-03-11T21:24:37.768Z,9.80
2018-03-11T21:27:05.212Z,9.80
2018-03-11T21:29:32.644Z,9.80
2018-03-11T21:32:00.132Z,9.80
2018-03-11T21:34:27.660Z,9.80
2018-03-11T21:36:55.107Z,9.90
2018-03-11T21:39:22.534Z,9.90
2018-03-11T21:41:49.960Z,9.90
2018-03-11T21:44:17.416Z,9.80
2018-03-11T21:46:44.824Z,9.80
2018-03-11T21:49:12.266Z,9.80
2018-03-11T21:51:40.456Z,9.70
2018-03-11T21:54:07.905Z,9.70
2018-03-11T21:56:35.360Z,9.70
2018-03-11T21:59:02.789Z,9.70
2018-03-11T22:01:30.222Z,9.70
2018-03-11T22:03:57.691Z,9.70
2018-03-11T22:06:25.079Z,9.60
2018-03-11T22:08:52.517Z,9.60
2018-03-11T22:11:20.712Z,9.60
2018-03-11T22:13:48.124Z,9.60
2018-03-11T22:16:15.544Z,9.60
2018-03-11T22:18:43.751Z,9.60
2018-03-11T22:21:11.164Z,9.60
2018-03-11T22:23:38.606Z,9.60
2018-03-11T22:26:06.792Z,9.70
2018-03-11T22:28:34.228Z,9.70
2018-03-11T22:31:01.687Z,9.70
2018-03-11T22:33:29.148Z,9.60
2018-03-11T22:35:56.566Z,9.60
2018-03-11T22:38:23.993Z,9.70
2018-03-11T22:40:51.430Z,9.70
2018-03-11T22:43:18.846Z,9.70
2018-03-11T22:45:47.027Z,9.70
2018-03-11T22:48:14.448Z,9.70
2018-03-11T22:50:42.645Z,9.60
2018-03-11T22:53:10.076Z,9.60
2018-03-11T22:55:37.511Z,9.70
2018-03-11T22:58:04.974Z,9.70
2018-03-11T23:00:32.391Z,9.70
2018-03-11T23:02:59.831Z,9.60
2018-03-11T23:05:27.268Z,9.60
2018-03-11T23:07:54.725Z,9.60
2018-03-11T23:10:23.712Z,9.50
2018-03-11T23:12:51.145Z,9.50
2018-03-11T23:15:18.586Z,9.50
2018-03-11T23:17:46.000Z,9.50
2018-03-11T23:20:14.193Z,9.40
2018-03-11T23:22:41.629Z,9.40
2018-03-11T23:25:09.092Z,9.40
2018-03-11T23:27:36.540Z,9.40
2018-03-11T23:30:03.952Z,9.40
2018-03-11T23:32:31.380Z,9.40
2018-03-11T23:34:58.824Z,9.40
2018-03-11T23:37:26.239Z,9.40
2018-03-11T23:39:54.441Z,9.40
2018-03-11T23:42:21.884Z,9.40
2018-03-11T23:44:49.346Z,9.40
2018-03-11T23:47:16.778Z,9.40
2018-03-11T23:49:44.191Z,9.50
2018-03-11T23:52:11.620Z,9.50
2018-03-11T23:54:39.812Z,9.50
2018-03-11T23:57:07.248Z,9.50
2018-03-11T23:59:34.681Z,9.50
